createdAt,value
2023-03-08T00:01:19.056Z,99562.25
2023-03-08T00:03:46.533Z,99521.38
2023-03-08T00:06:15.466Z,99583.63
2023-03-08T00:08:42.873Z,99565.72
2023-03-08T00:11:11.487Z,99583.91
2023-03-08T00:13:38.247Z,99582.19
2023-03-08T00:16:07.532Z,99579.16
2023-03-08T00:18:35.379Z,99545.75
2023-03-08T00:21:07.868Z,99551.75
2023-03-08T00:23:34.978Z,99579.56
2023-03-08T00:26:01.489Z,99571.69
2023-03-08T00:28:28.359Z,99587.69
2023-03-08T00:31:04.130Z,99585.50
2023-03-08T00:33:32.966Z,99589.56
2023-03-08T00:36:05.356Z,99564.88
2023-03-08T00:38:33.908Z,99592.03
2023-03-08T00:41:00.487Z,99559.94
2023-03-08T00:43:27.861Z,99584.44
2023-03-08T00:45:54.405Z,99592.53
2023-03-08T00:48:21.360Z,99593.75
2023-03-08T00:50:48.426Z,99592.31
2023-03-08T00:53:15.213Z,99522.59
2023-03-08T00:55:56.093Z,99588.94
2023-03-08T00:58:23.988Z,99593.16
2023-03-08T01:00:50.767Z,99605.66
2023-03-08T01:03:18.308Z,99602.75
2023-03-08T01:05:50.335Z,99557.97
2023-03-08T01:08:18.208Z,99615.16
2023-03-08T01:10:58.748Z,99568.72
2023-03-08T01:13:32.475Z,99608.31
2023-03-08T01:15:59.925Z,99612.19
2023-03-08T01:18:26.718Z,99606.03
2023-03-08T01:21:04.042Z,99608.78
2023-03-08T01:23:31.308Z,99603.50
2023-03-08T01:26:03.117Z,99601.63
2023-03-08T01:28:29.997Z,99600.38
2023-03-08T01:31:04.794Z,99588.34
2023-03-08T01:33:31.817Z,99530.34
2023-03-08T01:35:58.318Z,99499.97
2023-03-08T01:38:25.089Z,99577.00
2023-03-08T01:40:58.923Z,99584.25
2023-03-08T01:43:31.127Z,99575.09
2023-03-08T01:46:31.043Z,99586.06
2023-03-08T01:49:14.242Z,99507.59
2023-03-08T01:51:44.052Z,99579.72
2023-03-08T01:54:18.073Z,99564.50
2023-03-08T01:56:46.954Z,99402.31
2023-03-08T01:59:14.621Z,99556.44
2023-03-08T02:01:41.624Z,99514.06
2023-03-08T02:04:09.689Z,99550.03
2023-03-08T02:06:36.207Z,99550.59
2023-03-08T02:09:05.138Z,99552.09
2023-03-08T02:11:37.226Z,99551.56
2023-03-08T02:14:04.359Z,99543.28
2023-03-08T02:16:31.245Z,99500.63
2023-03-08T02:19:01.050Z,99543.09
2023-03-08T02:21:29.296Z,99542.84
2023-03-08T02:23:56.166Z,99524.25
2023-03-08T02:26:23.522Z,99536.28
2023-03-08T02:28:50.044Z,99526.22
2023-03-08T02:31:16.653Z,99531.56
2023-03-08T02:33:43.198Z,99508.09
2023-03-08T02:36:10.344Z,99534.41
2023-03-08T02:38:37.516Z,99539.69
2023-03-08T02:41:04.074Z,99518.69
2023-03-08T02:43:30.547Z,99529.56
2023-03-08T02:45:57.105Z,99536.53
2023-03-08T02:48:23.542Z,99543.63
2023-03-08T02:50:50.161Z,99551.53
2023-03-08T02:53:16.824Z,99533.28
2023-03-08T02:55:43.340Z,99490.78
2023-03-08T02:58:10.447Z,99544.22
2023-03-08T03:00:38.464Z,99538.28
2023-03-08T03:03:05.109Z,99538.38
2023-03-08T03:05:31.806Z,99438.44
2023-03-08T03:07:59.253Z,99518.97
2023-03-08T03:10:26.221Z,99524.91
2023-03-08T03:12:52.977Z,99528.84
2023-03-08T03:15:19.525Z,99531.56
2023-03-08T03:17:46.052Z,99494.88
2023-03-08T03:20:13.088Z,99529.81
2023-03-08T03:22:39.634Z,99537.31
2023-03-08T03:25:06.475Z,99536.47
2023-03-08T03:27:32.974Z,99447.03
2023-03-08T03:29:59.523Z,99535.56
2023-03-08T03:32:26.065Z,99530.47
2023-03-08T03:34:52.746Z,99507.53
2023-03-08T03:37:19.403Z,99441.81
2023-03-08T03:39:45.916Z,99537.22
2023-03-08T03:42:12.477Z,99544.31
2023-03-08T03:44:39.092Z,99523.31
2023-03-08T03:47:06.374Z,99545.81
2023-03-08T03:49:32.874Z,99539.13
2023-03-08T03:51:59.336Z,99547.53
2023-03-08T03:54:26.263Z,99542.09
2023-03-08T03:56:52.800Z,99546.56
2023-03-08T03:59:19.323Z,99566.88
2023-03-08T04:01:45.837Z,99567.31
2023-03-08T04:04:12.386Z,99551.41
2023-03-08T04:06:39.155Z,99554.09
2023-03-08T04:09:08.312Z,99570.03
2023-03-08T04:11:37.790Z,99562.75
2023-03-08T04:14:04.991Z,99540.91
2023-03-08T04:16:34.037Z,99544.78
2023-03-08T04:19:03.437Z,99533.56
2023-03-08T04:21:30.924Z,99546.97
2023-03-08T04:23:59.521Z,99518.97
2023-03-08T04:26:27.092Z,99563.50
2023-03-08T04:28:53.696Z,99556.47
2023-03-08T04:31:23.481Z,99549.31
2023-03-08T04:33:50.725Z,99556.63
2023-03-08T04:36:18.291Z,99551.56
2023-03-08T04:38:46.058Z,99557.72
2023-03-08T04:41:14.702Z,99562.31
2023-03-08T04:43:48.293Z,99519.16
2023-03-08T04:46:16.242Z,99567.56
2023-03-08T04:48:42.863Z,99530.47
2023-03-08T04:51:11.963Z,99568.69
2023-03-08T04:53:39.340Z,99563.31
2023-03-08T04:56:06.901Z,99499.19
2023-03-08T04:58:33.918Z,99491.03
2023-03-08T05:01:00.504Z,99541.56
2023-03-08T05:03:27.312Z,99564.09
2023-03-08T05:05:55.927Z,99566.97
2023-03-08T05:08:22.880Z,99488.31
2023-03-08T05:10:54.223Z,99492.38
2023-03-08T05:13:20.831Z,99520.50
2023-03-08T05:15:47.371Z,99559.81
2023-03-08T05:18:13.925Z,99557.22
2023-03-08T05:20:40.630Z,99568.63
2023-03-08T05:23:07.283Z,99496.34
2023-03-08T05:25:34.491Z,99528.09
2023-03-08T05:28:01.007Z,99558.59
2023-03-08T05:30:27.525Z,99564.47
2023-03-08T05:32:54.017Z,99498.94
2023-03-08T05:35:20.583Z,99551.72
2023-03-08T05:37:47.039Z,99459.25
2023-03-08T05:40:13.687Z,99556.09
2023-03-08T05:42:40.235Z,99564.25
2023-03-08T05:45:07.363Z,99550.53
2023-03-08T05:47:33.900Z,99565.56
2023-03-08T05:50:00.379Z,99567.09
2023-03-08T05:52:26.941Z,99482.56
2023-03-08T05:54:53.478Z,99572.50
2023-03-08T05:57:19.973Z,99567.66
2023-03-08T05:59:46.494Z,99516.41
2023-03-08T06:02:13.013Z,99587.63
2023-03-08T06:04:39.572Z,99545.28
2023-03-08T06:07:06.117Z,99584.84
2023-03-08T06:09:32.630Z,99589.97
2023-03-08T06:11:59.072Z,99597.50
2023-03-08T06:14:25.668Z,99555.66
2023-03-08T06:16:52.344Z,99596.97
2023-03-08T06:19:18.862Z,99590.78
2023-03-08T06:21:45.311Z,99587.78
2023-03-08T06:24:11.755Z,99540.97
2023-03-08T06:26:38.339Z,99515.44
2023-03-08T06:29:04.838Z,99571.78
2023-03-08T06:31:31.367Z,99569.81
2023-03-08T06:33:57.994Z,99587.06
2023-03-08T06:36:24.555Z,99541.25
2023-03-08T06:38:51.118Z,99568.34
2023-03-08T06:41:19.848Z,99568.78
2023-03-08T06:43:46.468Z,99528.31
2023-03-08T06:46:17.164Z,99526.78
2023-03-08T06:48:44.123Z,99557.88
2023-03-08T06:51:11.194Z,99565.59
2023-03-08T06:53:38.314Z,99585.44
2023-03-08T06:56:06.932Z,99539.59
2023-03-08T06:58:35.112Z,99422.53
2023-03-08T07:01:04.314Z,99545.72
2023-03-08T07:03:32.040Z,99584.69
2023-03-08T07:06:06.745Z,99587.47
2023-03-08T07:08:34.154Z,99593.53
2023-03-08T07:11:01.429Z,99602.41
2023-03-08T07:13:29.819Z,99509.94
2023-03-08T07:15:56.974Z,99550.34
2023-03-08T07:18:26.737Z,99640.09
2023-03-08T07:20:57.033Z,99606.97
2023-03-08T07:23:24.039Z,99568.03
2023-03-08T07:25:50.764Z,99570.47
2023-03-08T07:28:18.488Z,99564.84
2023-03-08T07:30:50.037Z,99602.97
2023-03-08T07:33:17.935Z,99571.34
2023-03-08T07:35:44.790Z,99547.88
2023-03-08T07:38:12.487Z,99468.94
2023-03-08T07:40:39.217Z,99541.13
2023-03-08T07:43:06.454Z,99528.94
2023-03-08T07:45:33.236Z,99578.78
2023-03-08T07:47:59.827Z,99510.25
2023-03-08T07:50:27.402Z,99598.34
2023-03-08T07:52:54.018Z,99578.25
2023-03-08T07:55:21.539Z,99612.81
2023-03-08T07:57:48.067Z,99615.03
2023-03-08T08:00:14.861Z,99615.53
2023-03-08T08:02:41.377Z,99531.66
2023-03-08T08:05:08.331Z,99610.03
2023-03-08T08:07:34.809Z,99556.47
2023-03-08T08:10:01.291Z,99587.47
2023-03-08T08:12:27.809Z,99590.25
2023-03-08T08:14:54.424Z,99527.97
2023-03-08T08:17:21.426Z,99541.50
2023-03-08T08:19:49.362Z,99605.00
2023-03-08T08:22:15.951Z,99613.59
2023-03-08T08:24:42.734Z,99618.34
2023-03-08T08:27:09.202Z,99592.25
2023-03-08T08:29:37.649Z,99613.53
2023-03-08T08:32:04.902Z,99552.84
2023-03-08T08:34:31.470Z,99578.66
2023-03-08T08:36:58.000Z,99611.94
2023-03-08T08:39:24.567Z,99614.28
2023-03-08T08:41:51.076Z,99520.22
2023-03-08T08:44:17.784Z,99581.44
2023-03-08T08:46:44.608Z,99627.88
2023-03-08T08:49:11.333Z,99581.38
2023-03-08T08:51:37.840Z,99573.59
2023-03-08T08:54:06.088Z,99630.09
2023-03-08T08:56:32.681Z,99594.19
2023-03-08T08:59:03.165Z,99641.31
2023-03-08T09:01:32.083Z,99627.88
2023-03-08T09:03:59.612Z,99637.44
2023-03-08T09:06:27.930Z,99626.56
2023-03-08T09:08:57.797Z,99623.78
2023-03-08T09:11:26.982Z,99636.75
2023-03-08T09:13:54.093Z,99604.25
2023-03-08T09:16:26.629Z,99631.28
2023-03-08T09:18:53.707Z,99625.00
2023-03-08T09:21:20.276Z,99566.03
2023-03-08T09:23:46.891Z,99530.09
2023-03-08T09:26:13.460Z,99622.53
2023-03-08T09:28:40.383Z,99612.09
2023-03-08T09:31:15.070Z,99563.84
2023-03-08T09:33:43.928Z,99617.53
2023-03-08T09:36:10.923Z,99581.00
2023-03-08T09:38:37.739Z,99598.81
2023-03-08T09:41:07.026Z,99610.25
2023-03-08T09:43:47.268Z,99611.56
2023-03-08T09:46:20.782Z,99612.50
2023-03-08T09:48:50.958Z,99614.78
2023-03-08T09:51:19.642Z,99603.38
2023-03-08T09:54:01.105Z,99606.50
2023-03-08T09:56:41.675Z,99606.78
2023-03-08T09:59:14.805Z,99589.66
2023-03-08T10:01:56.805Z,99597.13
2023-03-08T10:04:35.485Z,99595.00
2023-03-08T10:07:20.049Z,99571.16
2023-03-08T10:10:02.051Z,99587.72
2023-03-08T10:12:52.417Z,99581.91
2023-03-08T10:15:22.297Z,99569.59
2023-03-08T10:18:00.957Z,99574.84
2023-03-08T10:20:40.820Z,99519.22
2023-03-08T10:23:17.633Z,99597.88
2023-03-08T10:25:45.035Z,99594.03
2023-03-08T10:28:15.114Z,99578.78
2023-03-08T10:30:55.039Z,99583.53
2023-03-08T10:33:34.964Z,99587.00
2023-03-08T10:36:21.318Z,99567.84
2023-03-08T10:39:11.420Z,99582.97
2023-03-08T10:41:52.982Z,99582.84
2023-03-08T10:44:47.196Z,99572.81
2023-03-08T10:47:21.422Z,99565.78
2023-03-08T10:49:47.996Z,99545.78
2023-03-08T10:52:28.169Z,99499.41
2023-03-08T10:55:19.420Z,99571.16
2023-03-08T10:57:53.301Z,99571.56
2023-03-08T11:00:19.711Z,99574.63
2023-03-08T11:02:47.831Z,99548.25
2023-03-08T11:05:23.608Z,99473.34
2023-03-08T11:07:56.813Z,99546.34
2023-03-08T11:10:27.003Z,99473.50
2023-03-08T11:13:03.925Z,99565.00
2023-03-08T11:15:35.136Z,99541.25
2023-03-08T11:18:28.355Z,99560.59
2023-03-08T11:21:01.054Z,99560.91
2023-03-08T11:23:39.941Z,99556.72
2023-03-08T11:26:28.116Z,99504.41
2023-03-08T11:29:31.046Z,99526.13
2023-03-08T11:32:30.606Z,99564.19
2023-03-08T11:35:07.024Z,99559.38
2023-03-08T11:37:48.773Z,99558.13
2023-03-08T11:40:25.944Z,99565.41
2023-03-08T11:43:23.936Z,99545.66
2023-03-08T11:46:15.587Z,99564.97
2023-03-08T11:49:05.090Z,99562.56
2023-03-08T11:51:45.819Z,99565.56
2023-03-08T11:54:19.325Z,99559.72
2023-03-08T11:56:55.459Z,99566.50
2023-03-08T11:59:31.865Z,99521.53
2023-03-08T12:02:07.231Z,99571.03
2023-03-08T12:04:46.149Z,99512.06
2023-03-08T12:07:59.807Z,99565.69
2023-03-08T12:10:38.310Z,99568.09
2023-03-08T12:13:20.729Z,99564.59
2023-03-08T12:16:29.284Z,99563.16
2023-03-08T12:19:17.392Z,99488.38
2023-03-08T12:22:13.401Z,99494.16
2023-03-08T12:24:59.660Z,99476.41
2023-03-08T12:27:32.341Z,99550.72
2023-03-08T12:30:27.503Z,99497.81
2023-03-08T12:32:56.699Z,99529.25
2023-03-08T12:35:23.352Z,99545.47
2023-03-08T12:38:05.886Z,99531.63
2023-03-08T12:40:46.065Z,99541.59
2023-03-08T12:43:21.968Z,99543.38
2023-03-08T12:46:03.545Z,99539.16
2023-03-08T12:48:35.665Z,99544.13
2023-03-08T12:51:04.078Z,99533.69
2023-03-08T12:53:33.871Z,99539.16
2023-03-08T12:56:03.598Z,99536.16
2023-03-08T12:58:31.600Z,99531.47
2023-03-08T13:01:01.284Z,99541.19
2023-03-08T13:03:41.249Z,99529.44
2023-03-08T13:06:22.828Z,99541.84
2023-03-08T13:08:55.815Z,99509.66
2023-03-08T13:11:24.405Z,99493.91
2023-03-08T13:14:00.926Z,99518.28
2023-03-08T13:16:36.286Z,99542.41
2023-03-08T13:19:09.105Z,99537.91
2023-03-08T13:21:41.717Z,99537.59
2023-03-08T13:24:30.841Z,99522.94
2023-03-08T13:27:21.662Z,99535.50
2023-03-08T13:29:48.598Z,99529.16
2023-03-08T13:32:24.456Z,99473.28
2023-03-08T13:35:02.652Z,99538.03
2023-03-08T13:37:30.678Z,99547.63
2023-03-08T13:39:59.067Z,99530.00
2023-03-08T13:42:27.699Z,99550.53
2023-03-08T13:45:09.946Z,99504.75
2023-03-08T13:47:39.233Z,99490.09
2023-03-08T13:50:06.480Z,99545.06
2023-03-08T13:52:36.785Z,99539.38
2023-03-08T13:55:07.410Z,99546.03
2023-03-08T13:57:38.213Z,99526.19
2023-03-08T14:00:27.674Z,99513.50
2023-03-08T14:02:54.921Z,99548.16
2023-03-08T14:05:24.920Z,99527.75
2023-03-08T14:07:59.816Z,99504.09
2023-03-08T14:10:48.216Z,99538.19
2023-03-08T14:13:33.494Z,99537.25
2023-03-08T14:16:03.629Z,99528.78
2023-03-08T14:18:36.546Z,99537.69
2023-03-08T14:21:04.773Z,99526.66
2023-03-08T14:23:37.868Z,99408.31
2023-03-08T14:26:04.949Z,99514.28
2023-03-08T14:28:40.819Z,99467.44
2023-03-08T14:31:25.572Z,99523.34
2023-03-08T14:34:03.860Z,99519.50
2023-03-08T14:36:33.592Z,99520.13
2023-03-08T14:39:00.390Z,99506.25
2023-03-08T14:41:35.577Z,99342.69
2023-03-08T14:44:04.902Z,99514.84
2023-03-08T14:46:32.087Z,99514.91
2023-03-08T14:49:04.842Z,99432.00
2023-03-08T14:51:43.092Z,99503.91
2023-03-08T14:54:39.376Z,99486.06
2023-03-08T14:57:21.626Z,99503.78
2023-03-08T14:59:49.229Z,99458.41
2023-03-08T15:02:18.707Z,99475.09
2023-03-08T15:04:45.910Z,99325.38
2023-03-08T15:07:23.975Z,99491.59
2023-03-08T15:09:51.809Z,99361.69
2023-03-08T15:12:18.533Z,99488.59
2023-03-08T15:14:45.169Z,99490.00
2023-03-08T15:17:11.731Z,99445.59
2023-03-08T15:19:38.303Z,99497.38
2023-03-08T15:22:06.418Z,99379.19
2023-03-08T15:32:38.918Z,99429.53
2023-03-08T15:35:13.651Z,99482.41
2023-03-08T15:37:41.279Z,99496.28
2023-03-08T15:40:13.944Z,99346.72
2023-03-08T15:42:40.715Z,99497.28
2023-03-08T15:45:08.256Z,99487.81
2023-03-08T15:47:34.936Z,99489.66
2023-03-08T15:50:04.444Z,99468.91
2023-03-08T15:52:32.808Z,99485.84
2023-03-08T15:54:59.668Z,99439.69
2023-03-08T15:57:26.217Z,99482.44
2023-03-08T15:59:52.704Z,99492.75
2023-03-08T16:02:20.804Z,99492.75
2023-03-08T16:04:49.236Z,99461.19
2023-03-08T16:07:17.881Z,99485.41
2023-03-08T16:09:45.650Z,99469.72
2023-03-08T16:12:14.413Z,99427.81
2023-03-08T16:14:47.526Z,99483.84
2023-03-08T16:17:17.495Z,99473.66
2023-03-08T16:19:44.640Z,99479.72
2023-03-08T16:22:11.420Z,99474.94
2023-03-08T16:24:38.131Z,99441.00
2023-03-08T16:27:04.928Z,99475.81
2023-03-08T16:29:32.788Z,99415.84
2023-03-08T16:31:59.805Z,99315.66
2023-03-08T16:34:28.105Z,99477.19
2023-03-08T16:36:55.885Z,99479.06
2023-03-08T16:39:23.161Z,99450.53
2023-03-08T16:41:50.082Z,99420.94
2023-03-08T16:44:22.909Z,99487.28
2023-03-08T16:46:49.710Z,99482.97
2023-03-08T16:49:17.344Z,99477.06
2023-03-08T16:51:44.369Z,99479.38
2023-03-08T16:54:12.038Z,99342.84
2023-03-08T16:56:40.743Z,99466.41
2023-03-08T16:59:07.358Z,99483.94
2023-03-08T17:01:34.922Z,99436.63
2023-03-08T17:04:01.580Z,99460.13
2023-03-08T17:06:30.040Z,99483.41
2023-03-08T17:08:57.874Z,99471.06
2023-03-08T17:11:28.086Z,99344.38
2023-03-08T17:14:15.219Z,99494.34
2023-03-08T17:16:41.950Z,99497.38
2023-03-08T17:19:11.041Z,99488.16
2023-03-08T17:21:38.580Z,99423.31
2023-03-08T17:24:07.804Z,99493.63
2023-03-08T17:26:40.392Z,99505.59
2023-03-08T17:29:06.971Z,99498.81
2023-03-08T17:31:33.707Z,99507.56
2023-03-08T17:34:00.289Z,99496.88
2023-03-08T17:36:27.471Z,99483.53
2023-03-08T17:38:55.445Z,99487.88
2023-03-08T17:41:23.218Z,99515.75
2023-03-08T17:43:53.213Z,99507.13
2023-03-08T17:46:23.276Z,99505.94
2023-03-08T17:48:51.556Z,99519.72
2023-03-08T17:51:21.724Z,99516.78
2023-03-08T17:53:48.965Z,99517.19
2023-03-08T17:56:18.434Z,99469.88
2023-03-08T17:58:45.005Z,99505.44
2023-03-08T18:01:14.939Z,99519.91
2023-03-08T18:03:41.942Z,99526.34
2023-03-08T18:06:15.845Z,99517.47
2023-03-08T18:08:42.399Z,99463.69
2023-03-08T18:11:08.879Z,99508.41
2023-03-08T18:13:35.433Z,99516.28
2023-03-08T18:16:04.566Z,99427.31
2023-03-08T18:18:31.574Z,99430.63
2023-03-08T18:21:12.182Z,99474.94
2023-03-08T18:23:41.879Z,99482.41
2023-03-08T18:26:10.404Z,99493.44
2023-03-08T18:28:37.059Z,99484.88
2023-03-08T18:31:12.036Z,99505.06
2023-03-08T18:33:39.452Z,99508.34
2023-03-08T18:36:06.768Z,99508.09
2023-03-08T18:38:33.585Z,99347.66
2023-03-08T18:41:00.099Z,99491.88
2023-03-08T18:43:26.694Z,99460.78
2023-03-08T18:45:55.531Z,99477.56
2023-03-08T18:48:24.296Z,99496.78
2023-03-08T18:50:50.974Z,99465.63
2023-03-08T18:53:18.117Z,99410.84
2023-03-08T18:55:59.391Z,99486.72
2023-03-08T18:58:26.735Z,99423.22
2023-03-08T19:00:56.233Z,99495.63
2023-03-08T19:03:23.447Z,99473.03
2023-03-08T19:05:50.054Z,99489.03
2023-03-08T19:08:16.786Z,99440.53
2023-03-08T19:10:43.381Z,99485.09
2023-03-08T19:13:09.885Z,99435.97
2023-03-08T19:15:38.076Z,99468.06
2023-03-08T19:18:06.228Z,99418.91
2023-03-08T19:20:40.537Z,99450.06
2023-03-08T19:23:08.500Z,99478.69
2023-03-08T19:25:59.604Z,99471.56
2023-03-08T19:28:27.378Z,99437.75
2023-03-08T19:30:53.875Z,99451.88
2023-03-08T19:33:30.398Z,99457.41
2023-03-08T19:35:57.775Z,99466.97
2023-03-08T19:38:24.276Z,99469.31
2023-03-08T19:40:50.734Z,99454.38
2023-03-08T19:43:17.265Z,99462.94
2023-03-08T19:45:48.973Z,99463.06
2023-03-08T19:48:15.627Z,99385.97
2023-03-08T19:50:46.347Z,99454.84
2023-03-08T19:53:12.990Z,99437.75
2023-03-08T19:55:48.495Z,99387.22
2023-03-08T19:58:15.182Z,99450.03
2023-03-08T20:00:44.156Z,99450.13
2023-03-08T20:03:12.122Z,99440.69
2023-03-08T20:05:46.841Z,99433.63
2023-03-08T20:08:13.649Z,99462.00
2023-03-08T20:10:40.387Z,99417.06
2023-03-08T20:13:07.553Z,99390.63
2023-03-08T20:15:34.097Z,99449.44
2023-03-08T20:18:00.634Z,99465.31
2023-03-08T20:20:27.150Z,99478.00
2023-03-08T20:22:53.850Z,99456.84
2023-03-08T20:25:20.518Z,99448.53
2023-03-08T20:27:47.061Z,99446.88
2023-03-08T20:30:14.735Z,99465.41
2023-03-08T20:32:41.460Z,99427.53
2023-03-08T20:35:13.867Z,99483.56
2023-03-08T20:37:40.562Z,99457.97
2023-03-08T20:40:09.213Z,99448.44
2023-03-08T20:42:36.837Z,99490.53
2023-03-08T20:45:07.022Z,99493.84
2023-03-08T20:47:33.540Z,99440.09
2023-03-08T20:50:00.158Z,99491.13
2023-03-08T20:52:26.660Z,99491.13
2023-03-08T20:54:53.195Z,99486.22
2023-03-08T20:57:19.739Z,99448.47
2023-03-08T20:59:46.261Z,99487.66
2023-03-08T21:02:13.767Z,99444.53
2023-03-08T21:04:40.391Z,99419.16
2023-03-08T21:07:07.005Z,99488.59
2023-03-08T21:09:34.134Z,99471.75
2023-03-08T21:12:00.789Z,99480.34
2023-03-08T21:14:29.113Z,99491.25
2023-03-08T21:16:55.908Z,99434.13
2023-03-08T21:19:24.221Z,99497.13
2023-03-08T21:21:51.426Z,99439.16
2023-03-08T21:24:20.170Z,99506.34
2023-03-08T21:26:46.864Z,99505.94
2023-03-08T21:29:16.470Z,99438.44
2023-03-08T21:31:48.557Z,99453.81
2023-03-08T21:34:15.682Z,99496.06
2023-03-08T21:36:42.813Z,99489.91
2023-03-08T21:39:10.198Z,99428.94
2023-03-08T21:41:39.645Z,99485.78
2023-03-08T21:44:13.922Z,99467.94
2023-03-08T21:46:41.462Z,99455.69
2023-03-08T21:49:10.356Z,99443.41
2023-03-08T21:51:38.435Z,99439.69
2023-03-08T21:54:06.018Z,99444.34
2023-03-08T21:56:35.355Z,99380.56
2023-03-08T21:59:02.697Z,99451.03
2023-03-08T22:01:31.323Z,99422.38
2023-03-08T22:03:58.582Z,99439.22
2023-03-08T22:06:25.749Z,99456.13
2023-03-08T22:08:52.508Z,99411.00
2023-03-08T22:11:20.058Z,99392.31
2023-03-08T22:13:52.003Z,99447.19
2023-03-08T22:16:19.551Z,99451.13
2023-03-08T22:18:46.441Z,99305.84
2023-03-08T22:21:13.611Z,99447.63
2023-03-08T22:23:40.175Z,99436.59
2023-03-08T22:26:07.985Z,99456.34
2023-03-08T22:28:34.561Z,99437.66
2023-03-08T22:31:01.077Z,99448.16
2023-03-08T22:33:27.755Z,99450.94
2023-03-08T22:35:54.270Z,99403.66
2023-03-08T22:38:21.097Z,99427.47
2023-03-08T22:40:47.610Z,99313.69
2023-03-08T22:43:14.318Z,99443.97
2023-03-08T22:45:40.947Z,99448.22
2023-03-08T22:48:07.425Z,99447.41
2023-03-08T22:50:33.950Z,99418.81
2023-03-08T22:53:00.481Z,99450.13
2023-03-08T22:55:27.214Z,99456.09
2023-03-08T22:57:55.719Z,99393.38
2023-03-08T23:00:22.317Z,99442.09
2023-03-08T23:02:49.026Z,99447.72
2023-03-08T23:05:18.239Z,99449.00
2023-03-08T23:07:45.265Z,99447.19
2023-03-08T23:10:13.009Z,99381.47
2023-03-08T23:12:39.613Z,99374.06
2023-03-08T23:15:07.007Z,99450.94
2023-03-08T23:17:33.991Z,99392.53
2023-03-08T23:20:00.469Z,99437.66
2023-03-08T23:22:27.154Z,99416.50
2023-03-08T23:24:53.714Z,99376.50
2023-03-08T23:27:20.272Z,99436.81
2023-03-08T23:29:46.763Z,99426.28
2023-03-08T23:32:13.571Z,99433.59
2023-03-08T23:34:40.646Z,99439.97
2023-03-08T23:37:07.172Z,99405.81
2023-03-08T23:39:34.127Z,99428.94
2023-03-08T23:42:00.949Z,99373.13
2023-03-08T23:44:28.087Z,99430.66
2023-03-08T23:46:54.611Z,99417.06
2023-03-08T23:49:21.189Z,99428.13
2023-03-08T23:51:47.761Z,99440.44
2023-03-08T23:54:14.541Z,99417.63
2023-03-08T23:56:41.670Z,99426.22
2023-03-08T23:59:13.204Z,99423.44
